Time;durP1;ratioP1;P1;durP2;ratioP2;P2;SDS_P1;SDS_P2;PMS_P1;PMS_P2;Temp;Humidity;BMP_temperature;BMP_pressure;BME280_temperature;BME280_humidity;BME280_pressure;Samples;Min_cycle;Max_cycle;Signal;HPM_P1;HPM_P2
2022/06/10 00:00:42;;;;;;;;;;;18.30;88.30;;;;;;6188153;23;20022;-96
2022/06/10 00:03:11;;;;;;;;;;;18.10;88.70;;;;;;6188587;23;19956;-96
2022/06/10 00:05:37;;;;;;;;;;;18.10;89.20;;;;;;6188918;23;19930;-96
2022/06/10 00:08:04;;;;;;;;;;;18.10;89.10;;;;;;6188775;23;19941;-96
2022/06/10 00:10:29;;;;;;;;;;;18.10;89.10;;;;;;6188782;23;19942;-96
2022/06/10 00:12:55;;;;;;;;;;;18.10;89.10;;;;;;6188887;23;19969;-96
2022/06/10 00:15:21;;;;;;;;;;;18.10;88.90;;;;;;6189187;23;19989;-96
2022/06/10 00:17:46;;;;;;;;;;;18.10;88.60;;;;;;6188807;23;19940;-96
2022/06/10 00:20:14;;;;;;;;;;;18.10;88.60;;;;;;6189630;23;20403;-96
2022/06/10 00:22:39;;;;;;;;;;;18.10;88.40;;;;;;6188997;23;19938;-96
2022/06/10 00:25:05;;;;;;;;;;;18.10;88.30;;;;;;6188965;23;19972;-96
2022/06/10 00:27:31;;;;;;;;;;;18.00;88.20;;;;;;6188895;23;20406;-96
2022/06/10 00:29:57;;;;;;;;;;;18.00;88.20;;;;;;6189674;23;19932;-96
2022/06/10 00:32:22;;;;;;;;;;;18.00;88.10;;;;;;6162631;23;20354;-96
2022/06/10 00:34:48;;;;;;;;;;;18.00;88.30;;;;;;6189144;23;20264;-96
2022/06/10 00:37:14;;;;;;;;;;;17.90;88.10;;;;;;6188991;23;19932;-96
2022/06/10 00:39:40;;;;;;;;;;;17.90;88.40;;;;;;6162188;23;20415;-96
2022/06/10 00:42:05;;;;;;;;;;;17.80;88.10;;;;;;6188675;23;19992;-96
2022/06/10 00:44:37;;;;;;;;;;;17.60;88.70;;;;;;6188130;23;19954;-96
2022/06/10 00:47:13;;;;;;;;;;;17.40;89.20;;;;;;6188357;23;19937;-96
2022/06/10 00:49:39;;;;;;;;;;;17.30;89.70;;;;;;6188581;23;19937;-96
2022/06/10 00:52:08;;;;;;;;;;;17.30;89.60;;;;;;6187523;23;19932;-96
2022/06/10 00:54:45;;;;;;;;;;;17.30;89.70;;;;;;6187349;23;20016;-96
2022/06/10 00:57:19;;;;;;;;;;;17.20;89.70;;;;;;6188037;23;19946;-96
2022/06/10 00:59:44;;;;;;;;;;;17.10;90.00;;;;;;6187045;23;19972;-96
2022/06/10 01:02:12;;;;;;;;;;;17.10;90.30;;;;;;6188154;23;20456;-96
2022/06/10 01:04:40;;;;;;;;;;;17.10;90.20;;;;;;6188956;23;20268;-96
2022/06/10 01:07:06;;;;;;;;;;;17.10;90.00;;;;;;6189825;23;19960;-96
2022/06/10 01:09:32;;;;;;;;;;;17.00;89.70;;;;;;6163025;23;19972;-96
2022/06/10 01:12:16;;;;;;;;;;;17.00;89.70;;;;;;6190034;23;20400;-96
2022/06/10 01:14:42;;;;;;;;;;;17.10;90.00;;;;;;6189927;23;19957;-96
2022/06/10 01:17:13;;;;;;;;;;;17.10;90.10;;;;;;6190179;23;19943;-96
2022/06/10 01:19:45;;;;;;;;;;;17.10;90.10;;;;;;6189916;23;19936;-96
2022/06/10 01:22:27;;;;;;;;;;;17.10;89.70;;;;;;6190804;23;19974;-96
2022/06/10 01:24:56;;;;;;;;;;;17.10;89.50;;;;;;6190751;23;20314;-96
2022/06/10 01:27:49;;;;;;;;;;;17.00;89.40;;;;;;6190726;23;20341;-96
2022/06/10 01:30:19;;;;;;;;;;;17.00;89.20;;;;;;6192093;23;20021;-96
2022/06/10 01:32:50;;;;;;;;;;;16.90;88.90;;;;;;6192994;23;19932;-96
2022/06/10 01:35:30;;;;;;;;;;;16.80;88.80;;;;;;6192882;23;19944;-96
2022/06/10 01:37:55;;;;;;;;;;;16.80;89.20;;;;;;6193629;23;19968;-96
2022/06/10 01:40:26;;;;;;;;;;;16.80;89.60;;;;;;6193955;23;19933;-96
2022/06/10 01:42:57;;;;;;;;;;;16.80;89.60;;;;;;6166991;23;19962;-96
2022/06/10 01:45:33;;;;;;;;;;;16.80;89.60;;;;;;6193265;23;19960;-96
2022/06/10 01:48:13;;;;;;;;;;;16.70;89.50;;;;;;6194397;23;20349;-96
2022/06/10 01:50:44;;;;;;;;;;;16.60;89.70;;;;;;6196260;23;19934;-96
2022/06/10 01:53:12;;;;;;;;;;;16.60;90.00;;;;;;6169728;23;20074;-96
2022/06/10 01:55:41;;;;;;;;;;;16.60;90.20;;;;;;6195528;23;19949;-96
2022/06/10 01:58:09;;;;;;;;;;;16.70;90.40;;;;;;6195712;23;19934;-96
2022/06/10 02:00:36;;;;;;;;;;;16.80;90.70;;;;;;6168172;23;19976;-96
2022/06/10 02:03:15;;;;;;;;;;;16.80;90.60;;;;;;6195972;23;20004;-96
2022/06/10 02:05:57;;;;;;;;;;;16.80;90.70;;;;;;6195372;23;19932;-96
2022/06/10 02:08:27;;;;;;;;;;;16.80;90.60;;;;;;6195494;23;19985;-96
2022/06/10 02:11:12;;;;;;;;;;;16.90;90.50;;;;;;6168385;23;19948;-96
2022/06/10 02:13:43;;;;;;;;;;;16.90;90.40;;;;;;6194964;23;20020;-96
2022/06/10 02:16:11;;;;;;;;;;;16.80;90.40;;;;;;6168658;23;19939;-96
2022/06/10 02:19:03;;;;;;;;;;;16.80;90.30;;;;;;6194562;23;19938;-96
2022/06/10 02:21:32;;;;;;;;;;;16.80;90.40;;;;;;6148604;23;19974;-96
2022/06/10 02:24:08;;;;;;;;;;;16.80;90.50;;;;;;6195241;23;20253;-96
2022/06/10 02:26:35;;;;;;;;;;;16.70;90.50;;;;;;6193856;23;19952;-96
2022/06/10 02:29:02;;;;;;;;;;;16.70;90.40;;;;;;6192521;23;19934;-96
2022/06/10 02:31:32;;;;;;;;;;;16.60;90.40;;;;;;6167213;23;19948;-96
2022/06/10 02:33:58;;;;;;;;;;;16.70;90.30;;;;;;6194583;23;19938;-96
2022/06/10 02:36:43;;;;;;;;;;;16.70;90.30;;;;;;6193909;23;19945;-96
2022/06/10 02:39:12;;;;;;;;;;;16.60;90.10;;;;;;6193661;23;19945;-96
2022/06/10 02:41:44;;;;;;;;;;;16.60;90.00;;;;;;6194069;23;19946;-96
2022/06/10 02:44:45;;;;;;;;;;;16.60;89.90;;;;;;6166733;23;19964;-96
2022/06/10 02:47:21;;;;;;;;;;;16.50;90.00;;;;;;6072626;23;19971;-96
2022/06/10 02:49:46;;;;;;;;;;;16.40;90.50;;;;;;6149032;23;19941;-96
2022/06/10 02:52:13;;;;;;;;;;;16.40;90.90;;;;;;6192153;23;19934;-96
2022/06/10 02:54:39;;;;;;;;;;;16.40;90.90;;;;;;6192783;23;19936;-96
2022/06/10 02:57:10;;;;;;;;;;;16.30;91.10;;;;;;6192552;23;19935;-96
2022/06/10 03:02:20;;;;;;;;;;;16.30;91.40;;;;;;6195213;23;19954;-96
2022/06/10 03:04:59;;;;;;;;;;;16.30;91.70;;;;;;6192731;23;19966;-96
2022/06/10 03:07:24;;;;;;;;;;;16.20;91.60;;;;;;6189635;23;19963;-96
2022/06/10 03:10:16;;;;;;;;;;;16.30;91.30;;;;;;6189036;23;20347;-95
2022/06/10 03:12:57;;;;;;;;;;;16.20;90.90;;;;;;6143489;23;19940;-96
2022/06/10 03:15:37;;;;;;;;;;;16.20;90.60;;;;;;6190814;23;20030;-96
2022/06/10 03:18:08;;;;;;;;;;;16.00;89.60;;;;;;6189924;23;19940;-96
2022/06/10 03:20:43;;;;;;;;;;;15.90;89.90;;;;;;6190375;23;19962;-96
2022/06/10 03:23:14;;;;;;;;;;;15.80;90.10;;;;;;6189247;23;20034;-96
2022/06/10 03:25:43;;;;;;;;;;;15.80;90.80;;;;;;6189938;23;20017;-96
2022/06/10 03:28:14;;;;;;;;;;;15.80;90.70;;;;;;6190123;23;19938;-96
2022/06/10 03:30:54;;;;;;;;;;;15.70;90.80;;;;;;6191169;23;19939;-96
2022/06/10 03:33:28;;;;;;;;;;;15.70;90.80;;;;;;6190252;23;19957;-96
2022/06/10 03:36:00;;;;;;;;;;;15.60;90.40;;;;;;6191277;23;19970;-96
2022/06/10 03:38:26;;;;;;;;;;;15.60;90.60;;;;;;6164013;23;19945;-96
2022/06/10 03:40:53;;;;;;;;;;;15.60;90.50;;;;;;6190785;23;20343;-96
2022/06/10 03:43:19;;;;;;;;;;;15.60;90.60;;;;;;6163855;23;19965;-96
2022/06/10 03:45:47;;;;;;;;;;;15.70;90.80;;;;;;6190275;23;20310;-96
2022/06/10 03:48:14;;;;;;;;;;;15.60;90.50;;;;;;6189850;23;19983;-96
2022/06/10 03:50:40;;;;;;;;;;;15.50;90.50;;;;;;6188796;23;19936;-96
2022/06/10 03:53:07;;;;;;;;;;;15.30;90.60;;;;;;6189927;23;19970;-95
2022/06/10 03:55:32;;;;;;;;;;;15.30;90.80;;;;;;6189700;23;19939;-96
2022/06/10 03:57:58;;;;;;;;;;;15.30;90.60;;;;;;6189721;23;19959;-96
2022/06/10 04:00:26;;;;;;;;;;;15.40;90.60;;;;;;6158144;23;19974;-96
2022/06/10 04:02:52;;;;;;;;;;;15.30;90.20;;;;;;6158892;23;19942;-96
2022/06/10 04:05:18;;;;;;;;;;;15.20;90.10;;;;;;6158649;23;19987;-96
2022/06/10 04:07:44;;;;;;;;;;;15.20;90.00;;;;;;6159355;23;19939;-96
2022/06/10 04:10:12;;;;;;;;;;;15.20;89.80;;;;;;6159067;23;19987;-96
2022/06/10 04:12:38;;;;;;;;;;;15.20;89.90;;;;;;6160600;23;19938;-96
2022/06/10 04:15:04;;;;;;;;;;;15.30;90.10;;;;;;6162957;23;20241;-96
2022/06/10 04:17:30;;;;;;;;;;;15.20;90.20;;;;;;6163731;23;19933;-96
2022/06/10 04:19:57;;;;;;;;;;;15.00;90.10;;;;;;6165540;23;20279;-96
2022/06/10 04:22:23;;;;;;;;;;;15.00;90.30;;;;;;6167261;23;19941;-96
2022/06/10 04:24:49;;;;;;;;;;;15.00;90.60;;;;;;6165315;23;19965;-96
2022/06/10 04:27:15;;;;;;;;;;;15.00;90.70;;;;;;6165663;23;20361;-96
2022/06/10 04:29:41;;;;;;;;;;;15.10;91.00;;;;;;6166233;23;19932;-96
2022/06/10 04:32:07;;;;;;;;;;;15.20;91.00;;;;;;6163810;23;19940;-96
2022/06/10 04:34:33;;;;;;;;;;;15.30;90.90;;;;;;6164023;23;20361;-96
2022/06/10 04:36:58;;;;;;;;;;;15.40;90.60;;;;;;6187728;23;19944;-96
2022/06/10 04:39:24;;;;;;;;;;;15.60;90.70;;;;;;6164001;23;19936;-96
2022/06/10 04:41:49;;;;;;;;;;;15.60;90.60;;;;;;6162755;23;20269;-96
2022/06/10 04:44:15;;;;;;;;;;;15.60;90.40;;;;;;6162486;23;19959;-96
2022/06/10 04:46:42;;;;;;;;;;;15.60;90.80;;;;;;6162207;23;19930;-96
2022/06/10 04:49:08;;;;;;;;;;;15.70;90.80;;;;;;6163093;23;19941;-96
2022/06/10 04:51:34;;;;;;;;;;;15.80;90.90;;;;;;6165926;23;19971;-96
2022/06/10 04:54:00;;;;;;;;;;;15.90;91.00;;;;;;6166479;23;19959;-96
2022/06/10 04:56:26;;;;;;;;;;;16.10;90.80;;;;;;6167940;23;19960;-96
2022/06/10 04:58:51;;;;;;;;;;;16.10;90.50;;;;;;6194320;23;19949;-96
2022/06/10 05:01:17;;;;;;;;;;;16.20;90.30;;;;;;6170615;23;19951;-96
2022/06/10 05:03:43;;;;;;;;;;;16.30;88.70;;;;;;6193806;23;19958;-96
2022/06/10 05:06:09;;;;;;;;;;;16.40;87.90;;;;;;6192155;23;20348;-96
2022/06/10 05:08:34;;;;;;;;;;;16.60;88.40;;;;;;6192095;23;19933;-96
2022/06/10 05:11:00;;;;;;;;;;;16.70;87.60;;;;;;6192863;23;20299;-96
2022/06/10 05:13:25;;;;;;;;;;;16.80;86.00;;;;;;6191283;23;19941;-96
2022/06/10 05:15:51;;;;;;;;;;;16.90;85.40;;;;;;6193329;23;19971;-96
2022/06/10 05:18:19;;;;;;;;;;;17.00;84.30;;;;;;6193978;23;19943;-96
2022/06/10 05:20:45;;;;;;;;;;;17.20;84.20;;;;;;6193939;23;19941;-96
2022/06/10 05:23:12;;;;;;;;;;;17.30;84.10;;;;;;6194339;23;19963;-96
2022/06/10 05:25:38;;;;;;;;;;;17.50;83.90;;;;;;6195556;23;19956;-96
2022/06/10 05:28:05;;;;;;;;;;;17.70;83.90;;;;;;6196559;23;19933;-96
2022/06/10 05:30:31;;;;;;;;;;;17.80;84.10;;;;;;6191149;23;19939;-96
2022/06/10 05:33:01;;;;;;;;;;;18.00;83.20;;;;;;6161319;23;19948;-96
2022/06/10 05:35:27;;;;;;;;;;;18.30;82.70;;;;;;6187731;23;20372;-96
2022/06/10 05:37:53;;;;;;;;;;;18.30;82.80;;;;;;6161971;23;19941;-96
2022/06/10 05:40:20;;;;;;;;;;;18.50;83.20;;;;;;6190421;23;19947;-96
2022/06/10 05:42:45;;;;;;;;;;;18.60;83.10;;;;;;6190754;23;19979;-96
2022/06/10 05:45:13;;;;;;;;;;;18.60;82.60;;;;;;6190024;23;19936;-96
2022/06/10 05:47:40;;;;;;;;;;;18.70;82.30;;;;;;6190184;23;19939;-96
2022/06/10 05:50:08;;;;;;;;;;;18.70;82.30;;;;;;6191170;23;20089;-96
2022/06/10 05:52:34;;;;;;;;;;;18.60;82.50;;;;;;6193295;23;20318;-96
2022/06/10 05:55:01;;;;;;;;;;;18.60;82.80;;;;;;6164598;23;19936;-96
2022/06/10 05:57:27;;;;;;;;;;;18.60;83.40;;;;;;6191932;23;19935;-96
2022/06/10 05:59:53;;;;;;;;;;;18.60;82.60;;;;;;6192898;23;19965;-96
2022/06/10 06:02:20;;;;;;;;;;;18.60;81.10;;;;;;6169951;23;19967;-96
2022/06/10 06:04:45;;;;;;;;;;;18.60;77.20;;;;;;6173282;23;19956;-96
2022/06/10 06:07:15;;;;;;;;;;;18.60;76.10;;;;;;6204651;23;19939;-96
2022/06/10 06:09:46;;;;;;;;;;;18.80;79.50;;;;;;6210536;23;19962;-96
2022/06/10 06:12:13;;;;;;;;;;;18.80;77.40;;;;;;6184997;23;19927;-96
2022/06/10 06:14:39;;;;;;;;;;;18.80;77.30;;;;;;6211536;23;19924;-96
2022/06/10 06:17:10;;;;;;;;;;;18.90;76.60;;;;;;6183134;23;19964;-96
2022/06/10 06:19:36;;;;;;;;;;;19.00;78.00;;;;;;6182454;23;20331;-96
2022/06/10 06:22:02;;;;;;;;;;;19.10;81.60;;;;;;6180446;23;19936;-96
2022/06/10 06:24:29;;;;;;;;;;;19.30;85.20;;;;;;6180072;23;19967;-96
2022/06/10 06:26:55;;;;;;;;;;;19.30;85.00;;;;;;6208099;23;19955;-96
2022/06/10 06:29:26;;;;;;;;;;;19.30;85.70;;;;;;6185538;23;19941;-96
2022/06/10 06:53:10;;;;;;;;;;;20.10;82.00;;;;;;6201723;23;19970;-96
2022/06/10 06:55:36;;;;;;;;;;;20.30;80.30;;;;;;6185313;23;19939;-96
2022/06/10 06:58:04;;;;;;;;;;;20.40;78.30;;;;;;6184533;23;19938;-96
2022/06/10 07:00:40;;;;;;;;;;;20.50;75.40;;;;;;6187024;23;19962;-96
2022/06/10 07:39:22;;;;;;;;;;;23.00;57.70;;;;;;6180487;23;19979;-96
2022/06/10 07:42:00;;;;;;;;;;;23.20;57.80;;;;;;6182516;23;19963;-96
2022/06/10 07:44:39;;;;;;;;;;;23.30;58.20;;;;;;6146370;23;21708;-96
2022/06/10 07:47:07;;;;;;;;;;;23.40;58.40;;;;;;6213140;23;20175;-96
2022/06/10 07:49:35;;;;;;;;;;;23.60;56.80;;;;;;6188429;23;19921;-97
2022/06/10 07:52:32;;;;;;;;;;;;;;;;;;;;;
2022/06/10 07:54:58;;;;;;;;;;;23.80;58.00;;;;;;6213514;23;19941;-96
2022/06/10 07:57:26;;;;;;;;;;;23.90;58.50;;;;;;6188108;23;19935;-96
2022/06/10 07:59:57;;;;;;;;;;;24.00;57.10;;;;;;6213887;23;19990;-96
2022/06/10 08:17:58;;;;;;;;;;;24.70;49.80;;;;;;6198610;22;19990;-96
2022/06/10 08:22:32;;;;;;;;;;;24.70;51.20;;;;;;6184831;23;20017;-96
2022/06/10 08:23:13;;;;;;;;;;;24.70;48.60;;;;;;6210284;23;19967;-96
2022/06/10 08:25:44;;;;;;;;;;;24.80;48.70;;;;;;6184354;23;19963;-96
2022/06/10 08:28:10;;;;;;;;;;;24.90;48.90;;;;;;6185226;23;19933;-96
2022/06/10 08:30:40;;;;;;;;;;;25.00;48.80;;;;;;6186096;23;19928;-96
2022/06/10 08:33:05;;;;;;;;;;;25.20;47.70;;;;;;6187279;23;19946;-95
2022/06/10 08:35:31;;;;;;;;;;;25.40;46.60;;;;;;6187714;23;19935;-95
2022/06/10 08:37:57;;;;;;;;;;;25.50;43.30;;;;;;6186462;23;20272;-94
2022/06/10 08:40:30;;;;;;;;;;;25.70;43.00;;;;;;6160857;23;19951;-94
2022/06/10 08:43:00;;;;;;;;;;;25.70;43.20;;;;;;6187236;23;19941;-95
2022/06/10 08:45:37;;;;;;;;;;;25.80;43.10;;;;;;6187229;23;19946;-95
2022/06/10 08:48:14;;;;;;;;;;;25.80;43.10;;;;;;6187283;23;20262;-95
2022/06/10 08:50:46;;;;;;;;;;;25.80;42.90;;;;;;6187331;23;19935;-95
2022/06/10 08:53:17;;;;;;;;;;;26.00;43.70;;;;;;6187269;23;19947;-95
2022/06/10 08:55:43;;;;;;;;;;;26.00;43.20;;;;;;6187092;23;19934;-95
2022/06/10 08:58:14;;;;;;;;;;;26.10;47.90;;;;;;6187215;23;19981;-94
2022/06/10 09:00:41;;;;;;;;;;;26.10;48.30;;;;;;6187080;23;20020;-94
2022/06/10 09:03:16;;;;;;;;;;;26.10;50.50;;;;;;6187392;23;19972;-94
2022/06/10 09:05:45;;;;;;;;;;;26.00;51.00;;;;;;6160458;23;19941;-95
2022/06/10 09:08:23;;;;;;;;;;;25.80;51.30;;;;;;6187353;23;19938;-95
2022/06/10 09:10:56;;;;;;;;;;;25.70;52.10;;;;;;6187175;23;19937;-95
2022/06/10 09:13:24;;;;;;;;;;;25.50;54.40;;;;;;6186751;23;19939;-95
2022/06/10 09:15:55;;;;;;;;;;;25.30;56.70;;;;;;6187214;23;19938;-96
2022/06/10 09:18:27;;;;;;;;;;;25.20;57.70;;;;;;6186706;23;20041;-95
2022/06/10 09:20:57;;;;;;;;;;;25.20;61.70;;;;;;6186256;23;19947;-95
2022/06/10 09:23:25;;;;;;;;;;;25.10;64.60;;;;;;6186836;23;19995;-95
2022/06/10 09:25:52;;;;;;;;;;;25.00;61.90;;;;;;6185904;23;20034;-94
2022/06/10 09:28:18;;;;;;;;;;;25.00;60.10;;;;;;6186389;23;19933;-96
2022/06/10 09:30:51;;;;;;;;;;;25.10;54.80;;;;;;6187002;23;19941;-94
2022/06/10 09:33:23;;;;;;;;;;;25.20;49.30;;;;;;6160434;23;19949;-95
2022/06/10 09:36:01;;;;;;;;;;;25.40;50.70;;;;;;6186806;23;19942;-95
2022/06/10 09:38:29;;;;;;;;;;;25.70;52.40;;;;;;6186598;23;19937;-95
2022/06/10 09:41:00;;;;;;;;;;;25.90;49.90;;;;;;6186639;23;19943;-95
2022/06/10 09:43:43;;;;;;;;;;;26.00;50.90;;;;;;6186811;23;19957;-95
2022/06/10 09:46:08;;;;;;;;;;;25.80;48.20;;;;;;6186545;23;19938;-95
2022/06/10 09:48:34;;;;;;;;;;;25.80;50.00;;;;;;6186793;23;19936;-95
2022/06/10 09:51:11;;;;;;;;;;;25.80;48.00;;;;;;6186764;23;19945;-95
2022/06/10 09:53:37;;;;;;;;;;;25.90;44.60;;;;;;6186625;23;19943;-95
2022/06/10 09:56:21;;;;;;;;;;;26.00;53.10;;;;;;6186714;23;20055;-96
2022/06/10 09:58:49;;;;;;;;;;;26.00;49.40;;;;;;6186440;23;20032;-95
2022/06/10 10:01:25;;;;;;;;;;;26.10;50.00;;;;;;6186778;23;19962;-95
2022/06/10 10:03:51;;;;;;;;;;;26.20;49.20;;;;;;6160113;23;19977;-95
2022/06/10 10:06:22;;;;;;;;;;;26.20;49.30;;;;;;6186928;23;20273;-95
2022/06/10 10:09:14;;;;;;;;;;;26.20;50.80;;;;;;6186211;23;19935;-95
2022/06/10 10:11:44;;;;;;;;;;;26.20;53.30;;;;;;6180421;23;20249;-94
2022/06/10 10:14:19;;;;;;;;;;;26.20;51.20;;;;;;6186714;23;19931;-95
2022/06/10 10:16:49;;;;;;;;;;;26.20;49.70;;;;;;6186772;23;20292;-96
2022/06/10 10:19:29;;;;;;;;;;;26.20;51.30;;;;;;6186534;23;19937;-95
2022/06/10 10:21:57;;;;;;;;;;;26.10;52.70;;;;;;6186834;23;19939;-94
2022/06/10 10:24:24;;;;;;;;;;;26.20;57.10;;;;;;6186505;23;19965;-96
2022/06/10 10:26:51;;;;;;;;;;;26.40;51.60;;;;;;6160044;23;20397;-96
2022/06/10 10:29:18;;;;;;;;;;;26.40;49.00;;;;;;6160042;23;20355;-96
2022/06/10 10:31:53;;;;;;;;;;;26.40;47.90;;;;;;6160096;23;19944;-95
2022/06/10 10:34:26;;;;;;;;;;;26.40;46.30;;;;;;6186783;23;20007;-95
2022/06/10 10:36:59;;;;;;;;;;;26.50;47.30;;;;;;6160002;23;19941;-96
2022/06/10 10:39:27;;;;;;;;;;;26.80;48.30;;;;;;6186307;23;19942;-95
2022/06/10 10:41:55;;;;;;;;;;;27.00;45.00;;;;;;6160036;23;19942;-96
2022/06/10 10:44:26;;;;;;;;;;;27.30;38.60;;;;;;6186609;23;20359;-96
2022/06/10 10:47:09;;;;;;;;;;;27.40;42.30;;;;;;6186674;23;20071;-95
2022/06/10 10:49:50;;;;;;;;;;;27.50;43.70;;;;;;6186683;23;19942;-96
2022/06/10 10:52:15;;;;;;;;;;;27.30;35.80;;;;;;6159996;23;19941;-95
2022/06/10 10:54:42;;;;;;;;;;;27.30;36.20;;;;;;6186290;23;19937;-96
2022/06/10 10:57:22;;;;;;;;;;;27.30;39.40;;;;;;6186653;23;20012;-95
2022/06/10 10:59:53;;;;;;;;;;;27.30;39.50;;;;;;6186347;23;19938;-96
2022/06/10 11:02:39;;;;;;;;;;;27.50;38.30;;;;;;6186672;23;19988;-95
2022/06/10 11:05:32;;;;;;;;;;;27.70;33.80;;;;;;6186196;23;19953;-96
2022/06/10 11:08:16;;;;;;;;;;;27.90;33.60;;;;;;6180901;23;19943;-96
2022/06/10 11:11:00;;;;;;;;;;;27.90;32.70;;;;;;6160029;23;19950;-95
2022/06/10 11:13:46;;;;;;;;;;;28.20;33.60;;;;;;6186636;23;19972;-96
2022/06/10 11:16:34;;;;;;;;;;;28.50;36.80;;;;;;6186277;23;19934;-96
2022/06/10 11:19:03;;;;;;;;;;;28.50;32.50;;;;;;6166930;23;19936;-96
2022/06/10 11:21:29;;;;;;;;;;;28.70;35.10;;;;;;6188427;23;19936;-96
2022/06/10 11:23:56;;;;;;;;;;;28.80;33.10;;;;;;6188437;23;19938;-96
2022/06/10 11:26:22;;;;;;;;;;;28.80;32.70;;;;;;6188284;23;20032;-95
2022/06/10 11:28:49;;;;;;;;;;;28.80;38.30;;;;;;6188517;23;19936;-96
2022/06/10 11:31:33;;;;;;;;;;;28.90;37.30;;;;;;6187766;23;19938;-95
2022/06/10 11:33:59;;;;;;;;;;;28.70;34.00;;;;;;6187695;23;19931;-95
2022/06/10 11:36:35;;;;;;;;;;;28.80;34.20;;;;;;6187828;23;19939;-96
2022/06/10 11:39:18;;;;;;;;;;;29.00;35.70;;;;;;6188310;23;19948;-96
2022/06/10 11:41:57;;;;;;;;;;;29.00;32.90;;;;;;6188328;23;20014;-96
2022/06/10 11:44:25;;;;;;;;;;;29.00;36.30;;;;;;6187927;23;19987;-96
2022/06/10 11:47:11;;;;;;;;;;;29.20;32.70;;;;;;6187902;23;19947;-96
2022/06/10 11:49:40;;;;;;;;;;;29.20;32.40;;;;;;6187673;23;20014;-96
2022/06/10 11:52:13;;;;;;;;;;;29.00;31.60;;;;;;6161401;23;19955;-96
2022/06/10 11:54:50;;;;;;;;;;;29.30;30.30;;;;;;6187897;23;20060;-96
2022/06/10 12:00:33;;;;;;;;;;;29.70;34.40;;;;;;6188326;23;19945;-95
2022/06/10 12:03:02;;;;;;;;;;;29.90;33.90;;;;;;6187660;23;19932;-96
2022/06/10 12:05:42;;;;;;;;;;;29.90;32.00;;;;;;6187787;23;19940;-96
2022/06/10 12:08:21;;;;;;;;;;;30.40;33.90;;;;;;6160773;23;19938;-96
2022/06/10 12:11:12;;;;;;;;;;;30.10;32.70;;;;;;6186734;23;19963;-95
2022/06/10 12:13:41;;;;;;;;;;;30.00;34.90;;;;;;6187138;23;19948;-95
2022/06/10 12:16:09;;;;;;;;;;;30.10;35.90;;;;;;6161022;23;19940;-96
2022/06/10 12:18:39;;;;;;;;;;;30.00;34.70;;;;;;6187198;23;19970;-96
2022/06/10 12:21:05;;;;;;;;;;;30.00;35.50;;;;;;6187964;23;19946;-96
2022/06/10 12:23:33;;;;;;;;;;;29.60;33.50;;;;;;6187470;23;20012;-95
2022/06/10 12:26:01;;;;;;;;;;;29.70;34.30;;;;;;6187596;23;19958;-96
2022/06/10 12:28:33;;;;;;;;;;;30.00;34.10;;;;;;6187589;23;19963;-96
2022/06/10 12:31:07;;;;;;;;;;;30.70;34.80;;;;;;6160764;23;19948;-96
2022/06/10 12:33:54;;;;;;;;;;;31.50;36.20;;;;;;6187394;23;19946;-96
2022/06/10 12:36:28;;;;;;;;;;;32.20;34.90;;;;;;6187195;23;20398;-96
2022/06/10 12:38:55;;;;;;;;;;;32.20;33.00;;;;;;6160889;23;20402;-96
2022/06/10 12:41:25;;;;;;;;;;;31.90;32.00;;;;;;6187345;23;19936;-96
2022/06/10 12:43:53;;;;;;;;;;;31.50;32.20;;;;;;6186816;23;19956;-96
2022/06/10 12:46:34;;;;;;;;;;;31.20;33.30;;;;;;6187126;23;19939;-96
2022/06/10 12:49:06;;;;;;;;;;;31.30;32.90;;;;;;6187300;23;19943;-96
2022/06/10 12:51:40;;;;;;;;;;;31.60;33.00;;;;;;6187187;23;19982;-95
2022/06/10 12:54:12;;;;;;;;;;;31.60;32.80;;;;;;6187023;23;19978;-96
2022/06/10 12:56:37;;;;;;;;;;;31.20;30.90;;;;;;6186945;23;20002;-95
2022/06/10 12:59:19;;;;;;;;;;;31.00;33.10;;;;;;6186433;23;20356;-96
2022/06/10 13:01:46;;;;;;;;;;;31.20;32.90;;;;;;6160685;23;19938;-96
2022/06/10 13:04:35;;;;;;;;;;;31.10;33.30;;;;;;6187258;23;20006;-96
2022/06/10 13:07:01;;;;;;;;;;;31.20;33.20;;;;;;6187578;23;19935;-96
2022/06/10 13:09:31;;;;;;;;;;;31.00;35.90;;;;;;6187081;23;20014;-96
2022/06/10 13:11:59;;;;;;;;;;;31.40;35.20;;;;;;6187359;23;20027;-96
2022/06/10 13:14:33;;;;;;;;;;;31.80;33.60;;;;;;6187854;23;20015;-96
2022/06/10 13:16:58;;;;;;;;;;;32.40;32.00;;;;;;6186822;23;19976;-96
2022/06/10 13:19:24;;;;;;;;;;;32.40;30.50;;;;;;6187121;23;19984;-96
2022/06/10 13:21:50;;;;;;;;;;;32.00;30.60;;;;;;6187259;23;19991;-96
2022/06/10 13:24:16;;;;;;;;;;;31.30;31.20;;;;;;6187114;23;20048;-96
2022/06/10 13:26:42;;;;;;;;;;;30.60;32.60;;;;;;6186801;23;19978;-96
2022/06/10 13:29:12;;;;;;;;;;;30.20;34.70;;;;;;6187086;23;19941;-96
2022/06/10 13:31:46;;;;;;;;;;;30.20;33.50;;;;;;6187000;23;20340;-96
2022/06/10 13:34:17;;;;;;;;;;;30.10;34.00;;;;;;6187058;23;19942;-96
2022/06/10 13:36:48;;;;;;;;;;;30.10;34.00;;;;;;6186944;23;19942;-96
2022/06/10 13:39:20;;;;;;;;;;;30.00;34.50;;;;;;6186958;23;19965;-96
2022/06/10 13:41:48;;;;;;;;;;;29.80;35.80;;;;;;6186582;23;19933;-95
2022/06/10 13:44:32;;;;;;;;;;;29.60;36.10;;;;;;6186674;23;19956;-95
2022/06/10 13:46:58;;;;;;;;;;;29.50;36.40;;;;;;6160271;23;20014;-94
2022/06/10 13:52:16;;;;;;;;;;;29.20;39.70;;;;;;6186903;23;20011;-96
2022/06/10 13:54:42;;;;;;;;;;;29.10;39.30;;;;;;6186683;23;19997;-96
2022/06/10 13:57:18;;;;;;;;;;;29.10;39.50;;;;;;6187260;23;20020;-96
2022/06/10 13:59:43;;;;;;;;;;;28.90;39.80;;;;;;6186745;23;19944;-96
2022/06/10 14:02:14;;;;;;;;;;;29.10;38.00;;;;;;6186692;23;20267;-96
2022/06/10 14:04:43;;;;;;;;;;;29.10;38.00;;;;;;6186367;23;19962;-96
2022/06/10 14:07:21;;;;;;;;;;;29.30;38.60;;;;;;6186866;23;19936;-96
2022/06/10 14:09:47;;;;;;;;;;;29.50;38.30;;;;;;6186515;23;20038;-96
2022/06/10 14:12:20;;;;;;;;;;;29.70;37.10;;;;;;6159787;23;19945;-96
2022/06/10 14:14:48;;;;;;;;;;;29.80;39.10;;;;;;6186832;23;19932;-96
2022/06/10 14:17:21;;;;;;;;;;;29.70;37.70;;;;;;6186300;23;20357;-96
2022/06/10 14:19:49;;;;;;;;;;;29.50;38.90;;;;;;6160092;23;19952;-96
2022/06/10 14:22:33;;;;;;;;;;;29.50;38.30;;;;;;6186641;23;20355;-96
2022/06/10 14:25:09;;;;;;;;;;;29.40;37.60;;;;;;6186271;23;19955;-96
2022/06/10 14:27:34;;;;;;;;;;;29.60;35.80;;;;;;6186026;23;20049;-96
2022/06/10 14:30:03;;;;;;;;;;;29.70;36.60;;;;;;6186684;23;19938;-96
2022/06/10 14:32:31;;;;;;;;;;;30.00;35.70;;;;;;6186365;23;19931;-96
2022/06/10 14:34:59;;;;;;;;;;;30.50;36.20;;;;;;6159931;23;19964;-96
2022/06/10 14:37:27;;;;;;;;;;;31.20;35.10;;;;;;6186035;23;19937;-96
2022/06/10 14:40:01;;;;;;;;;;;31.70;33.20;;;;;;6186363;23;19935;-96
2022/06/10 14:42:31;;;;;;;;;;;31.90;34.50;;;;;;6159772;23;20350;-96
2022/06/10 14:44:59;;;;;;;;;;;31.70;33.20;;;;;;6186035;23;19958;-96
2022/06/10 14:47:24;;;;;;;;;;;31.60;34.30;;;;;;6186009;23;19938;-96
2022/06/10 14:50:07;;;;;;;;;;;31.70;33.30;;;;;;6186228;23;19942;-96
2022/06/10 14:52:39;;;;;;;;;;;31.50;34.20;;;;;;6186270;23;19987;-96
2022/06/10 14:55:06;;;;;;;;;;;31.20;34.90;;;;;;6188196;23;19945;-96
2022/06/10 14:57:32;;;;;;;;;;;31.00;36.00;;;;;;6188624;23;19937;-96
2022/06/10 14:59:58;;;;;;;;;;;30.80;37.90;;;;;;6188333;23;20358;-96
2022/06/10 15:02:24;;;;;;;;;;;30.60;36.90;;;;;;6188288;23;19942;-96
2022/06/10 15:07:35;;;;;;;;;;;30.10;38.10;;;;;;6188090;23;20021;-96
2022/06/10 15:10:07;;;;;;;;;;;30.00;39.60;;;;;;6188221;23;19961;-96
2022/06/10 15:12:33;;;;;;;;;;;30.20;38.90;;;;;;6188795;23;20306;-95
2022/06/10 15:14:59;;;;;;;;;;;30.60;40.40;;;;;;6188189;23;19938;-95
2022/06/10 15:17:26;;;;;;;;;;;31.60;37.00;;;;;;6191382;23;20347;-96
2022/06/10 15:19:52;;;;;;;;;;;32.80;34.40;;;;;;6187987;23;19936;-96
2022/06/10 15:22:19;;;;;;;;;;;33.70;32.00;;;;;;6191690;23;19947;-96
2022/06/10 15:24:46;;;;;;;;;;;33.90;29.20;;;;;;6161569;23;19967;-96
2022/06/10 15:27:12;;;;;;;;;;;34.20;31.10;;;;;;6188037;23;19935;-96
2022/06/10 15:29:37;;;;;;;;;;;34.10;29.40;;;;;;6161563;23;19956;-95
2022/06/10 15:32:05;;;;;;;;;;;34.20;29.50;;;;;;6188006;23;19941;-96
2022/06/10 15:34:31;;;;;;;;;;;34.20;30.30;;;;;;6161642;23;20336;-96
2022/06/10 15:42:26;;;;;;;;;;;34.60;28.40;;;;;;6187923;23;20313;-96
2022/06/10 15:44:52;;;;;;;;;;;34.70;28.70;;;;;;6187691;23;20036;-96
2022/06/10 15:47:19;;;;;;;;;;;34.50;28.40;;;;;;6188097;23;20008;-96
2022/06/10 15:49:45;;;;;;;;;;;33.90;29.90;;;;;;6188074;23;19938;-96
2022/06/10 15:52:14;;;;;;;;;;;33.80;31.00;;;;;;6187863;23;19932;-96
2022/06/10 15:57:28;;;;;;;;;;;33.80;26.50;;;;;;6187108;23;19948;-96
2022/06/10 15:59:58;;;;;;;;;;;33.70;27.80;;;;;;6187556;23;19944;-96
2022/06/10 16:02:24;;;;;;;;;;;33.50;29.60;;;;;;6186986;23;19940;-96
2022/06/10 16:04:50;;;;;;;;;;;33.20;30.20;;;;;;6186960;23;19982;-96
2022/06/10 16:07:17;;;;;;;;;;;32.70;29.10;;;;;;6188074;23;19943;-95
2022/06/10 16:09:43;;;;;;;;;;;32.40;30.30;;;;;;6187582;23;19935;-96